Time;durP1;ratioP1;P1;durP2;ratioP2;P2;SDS_P1;SDS_P2;PMS_P1;PMS_P2;Temp;Humidity;BMP_temperature;BMP_pressure;BME280_temperature;BME280_humidity;BME280_pressure;Samples;Min_cycle;Max_cycle;Signal;HPM_P1;HPM_P2
2023/08/14 00:00:53;;;;;;;8.07;6.80;;;;;;;19.66;72.56;101072.91;5022476;28;20457;-80
2023/08/14 00:03:26;;;;;;;6.50;5.90;;;;;;;19.60;73.00;101074.81;5017610;28;20451;-80
2023/08/14 00:05:56;;;;;;;9.83;6.60;;;;;;;19.52;73.32;101081.56;5025418;28;20421;-80
2023/08/14 00:08:27;;;;;;;9.20;6.40;;;;;;;19.49;73.90;101073.84;5020419;28;20453;-82
2023/08/14 00:10:56;;;;;;;6.57;5.87;;;;;;;19.46;74.04;101076.28;5018945;28;20452;-82
2023/08/14 00:13:26;;;;;;;7.60;6.27;;;;;;;19.39;74.63;101072.88;5038857;28;20445;-81
2023/08/14 00:15:56;;;;;;;10.00;6.90;;;;;;;19.35;75.36;101078.03;5010361;28;20444;-81
2023/08/14 00:18:28;;;;;;;8.77;7.83;;;;;;;19.38;75.52;101077.53;5024101;28;20427;-81
2023/08/14 00:20:57;;;;;;;10.47;8.27;;;;;;;19.42;75.68;101081.41;5017901;28;20461;-81
2023/08/14 00:23:27;;;;;;;8.27;6.70;;;;;;;19.39;75.71;101068.22;5005016;28;20440;-80
2023/08/14 00:25:57;;;;;;;6.97;6.27;;;;;;;19.46;75.75;101071.59;5006540;28;20448;-80
2023/08/14 00:28:28;;;;;;;8.27;6.93;;;;;;;19.42;76.11;101075.91;5009194;28;20437;-80
2023/08/14 00:30:58;;;;;;;13.10;8.00;;;;;;;19.38;76.44;101072.03;5013286;28;20513;-83
2023/08/14 00:33:30;;;;;;;8.77;7.83;;;;;;;19.41;76.41;101077.00;5015952;28;20493;-80
2023/08/14 00:36:02;;;;;;;9.40;7.10;;;;;;;19.34;76.95;101064.56;5010139;28;20432;-80
2023/08/14 00:38:32;;;;;;;7.43;6.70;;;;;;;19.40;76.86;101069.88;5011500;28;20445;-81
2023/08/14 00:41:04;;;;;;;8.27;7.40;;;;;;;19.35;77.20;101060.75;5009156;28;20515;-80
2023/08/14 00:43:33;;;;;;;15.00;7.30;;;;;;;19.34;77.73;101067.31;5012358;28;20469;-81
2023/08/14 00:46:04;;;;;;;7.27;6.50;;;;;;;19.46;77.81;101074.34;5020162;28;20453;-81
2023/08/14 00:48:36;;;;;;;10.10;7.53;;;;;;;19.46;77.63;101076.28;5019661;28;20453;-80
2023/08/14 00:51:08;;;;;;;7.47;6.77;;;;;;;19.31;78.17;101071.41;5014618;28;20802;-80
2023/08/14 00:53:37;;;;;;;6.90;6.20;;;;;;;19.30;78.73;101077.16;5008260;28;20451;-80
2023/08/14 00:56:07;;;;;;;8.00;7.30;;;;;;;19.25;79.17;101066.94;5008048;28;20454;-79
2023/08/14 00:58:38;;;;;;;10.20;8.43;;;;;;;19.24;79.58;101067.19;5024476;28;20429;-79
2023/08/14 01:01:08;;;;;;;9.43;8.20;;;;;;;19.27;79.84;101062.00;5002438;28;20470;-80
2023/08/14 01:03:40;;;;;;;11.53;8.60;;;;;;;19.29;80.05;101067.25;5003871;28;20439;-79
2023/08/14 01:06:10;;;;;;;9.13;8.10;;;;;;;19.31;80.45;101060.44;5020874;28;20448;-79
2023/08/14 01:08:40;;;;;;;9.87;8.87;;;;;;;19.27;81.06;101063.91;5032136;28;20420;-79
2023/08/14 01:11:18;;;;;;;14.57;9.30;;;;;;;19.23;81.58;101066.34;5032024;28;20404;-81
2023/08/14 01:13:57;;;;;;;10.90;7.90;;;;;;;19.20;81.81;101066.88;5004742;28;20419;-79
2023/08/14 01:16:39;;;;;;;8.80;7.07;;;;;;;19.28;82.86;101071.06;5002395;28;20469;-80
2023/08/14 01:19:20;;;;;;;9.97;7.13;;;;;;;19.23;82.83;101068.25;5021270;28;20434;-80
2023/08/14 01:22:03;;;;;;;11.17;8.27;;;;;;;19.18;84.19;101069.03;5000042;28;20445;-80
2023/08/14 01:24:46;;;;;;;8.37;7.60;;;;;;;19.15;85.01;101068.72;5028884;28;20499;-80
2023/08/14 01:27:18;;;;;;;9.10;7.00;;;;;;;19.08;85.72;101071.63;4996994;28;20472;-80
2023/08/14 01:29:55;;;;;;;8.57;7.87;;;;;;;19.14;85.82;101070.63;5034897;28;20399;-80
2023/08/14 01:32:24;;;;;;;9.23;7.50;;;;;;;19.22;87.06;101075.66;5005862;28;20422;-80
2023/08/14 01:34:56;;;;;;;12.60;8.97;;;;;;;19.20;87.02;101082.50;5019247;28;20466;-80
2023/08/14 01:37:34;;;;;;;8.63;7.93;;;;;;;19.22;87.40;101072.91;5008010;28;20520;-79
2023/08/14 01:40:21;;;;;;;15.53;7.93;;;;;;;19.30;87.51;101077.16;5022812;28;20435;-81
2023/08/14 01:42:59;;;;;;;8.73;7.93;;;;;;;19.29;87.96;101084.53;5005470;28;20451;-80
2023/08/14 01:45:31;;;;;;;8.47;7.57;;;;;;;19.28;87.88;101076.56;4998169;28;20454;-79
2023/08/14 01:48:02;;;;;;;8.53;6.80;;;;;;;19.41;88.06;101082.47;5004399;28;20471;-80
2023/08/14 01:50:33;;;;;;;8.63;7.90;;;;;;;19.36;88.00;101076.97;5002036;28;20491;-80
2023/08/14 01:53:02;;;;;;;9.33;7.33;;;;;;;19.29;87.89;101073.56;5003460;28;20511;-78
2023/08/14 01:55:32;;;;;;;10.80;7.30;;;;;;;19.43;87.91;101074.84;5007879;28;20864;-80
2023/08/14 01:58:02;;;;;;;8.03;7.33;;;;;;;19.28;87.96;101073.81;5003637;28;20508;-80
2023/08/14 02:00:33;;;;;;;8.80;7.47;;;;;;;19.11;89.15;101071.16;5002328;28;20434;-79
2023/08/14 02:03:03;;;;;;;8.00;6.90;;;;;;;18.98;90.62;101066.84;5028446;28;20435;-79
2023/08/14 02:05:33;;;;;;;7.60;6.23;;;;;;;18.94;90.44;101075.81;5034587;28;20440;-80
2023/08/14 02:08:04;;;;;;;6.93;6.33;;;;;;;18.90;90.99;101074.69;5015394;28;20470;-80
2023/08/14 02:10:34;;;;;;;8.87;8.03;;;;;;;18.87;91.21;101076.03;5008464;28;20568;-80
2023/08/14 02:13:05;;;;;;;7.23;6.53;;;;;;;18.90;91.28;101069.19;5008388;28;20843;-80
2023/08/14 02:15:35;;;;;;;9.00;8.10;;;;;;;18.89;90.90;101057.41;5014403;28;20415;-80
2023/08/14 02:18:05;;;;;;;7.90;7.10;;;;;;;18.96;90.54;101062.72;5007526;28;20855;-80
2023/08/14 02:20:35;;;;;;;6.40;5.80;;;;;;;18.80;91.16;101066.31;5007829;28;20441;-82
2023/08/14 02:23:04;;;;;;;10.80;7.03;;;;;;;18.74;91.89;101059.09;5013518;28;20523;-82
2023/08/14 02:25:39;;;;;;;7.83;6.90;;;;;;;18.75;92.10;101058.00;5033067;28;20453;-80
2023/08/14 02:28:11;;;;;;;8.07;7.30;;;;;;;18.65;92.76;101056.78;5019859;28;20402;-81
2023/08/14 02:30:42;;;;;;;9.27;6.50;;;;;;;18.64;92.92;101057.84;5014838;28;20457;-79
2023/08/14 02:33:12;;;;;;;7.47;6.80;;;;;;;18.61;93.15;101058.38;5025472;28;20727;-80
2023/08/14 02:35:42;;;;;;;6.70;6.10;;;;;;;18.66;93.20;101061.19;5008381;28;20416;-80
2023/08/14 02:38:12;;;;;;;8.80;6.60;;;;;;;18.63;92.91;101067.19;5024491;28;20415;-80
2023/08/14 02:40:45;;;;;;;15.13;8.90;;;;;;;18.59;93.42;101062.44;5019314;28;20906;-80
2023/08/14 02:43:16;;;;;;;8.10;7.40;;;;;;;18.51;93.94;101071.88;5008753;28;20932;-80
2023/08/14 02:45:46;;;;;;;10.10;7.10;;;;;;;18.52;94.57;101072.72;5005833;28;21102;-80
2023/08/14 02:48:16;;;;;;;7.23;6.60;;;;;;;18.43;94.96;101069.56;5025426;28;20565;-81
2023/08/14 02:50:45;;;;;;;7.30;6.70;;;;;;;18.39;95.60;101071.16;5025479;28;20744;-80
2023/08/14 02:53:15;;;;;;;9.50;6.90;;;;;;;18.28;95.91;101077.53;5022564;28;20448;-80
2023/08/14 02:55:50;;;;;;;8.40;7.30;;;;;;;18.25;96.48;101070.63;5004719;28;20420;-80
2023/08/14 02:58:20;;;;;;;7.77;7.07;;;;;;;18.20;96.94;101067.81;5002902;28;20448;-80
2023/08/14 03:00:51;;;;;;;8.30;7.60;;;;;;;18.25;96.92;101078.84;5003011;28;20417;-80
2023/08/14 03:03:21;;;;;;;8.67;7.33;;;;;;;18.29;96.45;101073.72;5012794;28;20440;-80
2023/08/14 03:05:51;;;;;;;7.77;7.07;;;;;;;18.28;96.95;101065.75;5002072;28;20474;-80
2023/08/14 03:08:20;;;;;;;7.70;7.00;;;;;;;18.22;97.24;101073.88;5020387;28;20415;-80
2023/08/14 03:10:50;;;;;;;8.97;7.43;;;;;;;18.12;97.30;101073.69;5024378;28;20431;-80
2023/08/14 03:13:20;;;;;;;9.60;7.70;;;;;;;18.21;97.55;101071.38;4999806;28;20968;-81
2023/08/14 03:15:50;;;;;;;8.87;8.07;;;;;;;18.16;97.52;101074.88;5003366;28;20428;-81
2023/08/14 03:18:19;;;;;;;11.07;8.10;;;;;;;18.06;98.45;101080.16;4993248;28;20424;-81
2023/08/14 03:20:50;;;;;;;8.93;7.50;;;;;;;18.02;99.04;101080.91;4994759;28;20449;-81
2023/08/14 03:23:20;;;;;;;10.20;8.00;;;;;;;17.93;99.93;101085.97;5012435;28;20404;-80
2023/08/14 03:25:50;;;;;;;14.50;8.67;;;;;;;17.90;100.00;101091.09;5003886;28;20498;-80
2023/08/14 03:28:21;;;;;;;10.43;9.27;;;;;;;17.79;100.00;101090.06;5006900;28;20460;-80
2023/08/14 03:30:51;;;;;;;8.83;8.07;;;;;;;17.73;100.00;101080.94;5021560;28;20479;-79
2023/08/14 03:33:21;;;;;;;8.20;7.27;;;;;;;17.69;100.00;101085.25;5014508;28;20412;-79
2023/08/14 03:35:54;;;;;;;13.90;7.97;;;;;;;17.65;100.00;101083.22;5036425;28;20409;-79
2023/08/14 03:38:24;;;;;;;9.00;8.07;;;;;;;17.72;100.00;101082.00;5031253;28;20454;-79
2023/08/14 03:40:53;;;;;;;9.53;8.50;;;;;;;17.62;100.00;101075.53;4998626;28;20412;-80
2023/08/14 03:43:25;;;;;;;9.20;7.97;;;;;;;17.52;100.00;101078.88;5000461;28;20415;-80
2023/08/14 03:45:54;;;;;;;12.03;8.23;;;;;;;17.50;100.00;101085.63;4990840;28;20436;-80
2023/08/14 03:48:24;;;;;;;8.57;7.77;;;;;;;17.53;100.00;101083.22;5017179;28;20486;-80
2023/08/14 03:50:54;;;;;;;10.30;9.13;;;;;;;17.46;100.00;101077.09;5008509;28;20441;-80
2023/08/14 03:53:23;;;;;;;8.97;8.13;;;;;;;17.43;100.00;101082.22;5022621;28;20419;-79
2023/08/14 03:55:53;;;;;;;9.57;8.67;;;;;;;17.38;100.00;101082.91;5039536;28;20400;-80
2023/08/14 03:58:24;;;;;;;9.20;8.27;;;;;;;17.42;100.00;101089.59;5021301;28;20412;-79
2023/08/14 04:00:54;;;;;;;8.97;8.10;;;;;;;17.46;100.00;101079.81;5029199;28;20395;-79
2023/08/14 04:03:23;;;;;;;9.47;8.57;;;;;;;17.42;100.00;101083.28;5038751;28;20413;-80
2023/08/14 04:05:57;;;;;;;9.40;8.53;;;;;;;17.44;100.00;101078.38;5001264;28;20471;-80
2023/08/14 04:08:27;;;;;;;9.33;8.40;;;;;;;17.58;100.00;101077.88;5023356;28;20419;-80
2023/08/14 04:10:57;;;;;;;13.30;7.67;;;;;;;18.00;100.00;101081.16;5002897;28;20805;-80
2023/08/14 04:13:28;;;;;;;9.67;8.70;;;;;;;18.11;100.00;101082.16;5003894;28;20467;-80
2023/08/14 04:15:59;;;;;;;11.20;10.17;;;;;;;19.11;97.96;101079.38;5001673;28;20448;-81
2023/08/14 04:18:29;;;;;;;10.07;8.10;;;;;;;20.45;87.72;101076.75;5007336;28;20423;-82
2023/08/14 04:20:59;;;;;;;11.07;7.70;;;;;;;21.55;78.97;101092.25;5003796;28;20451;-81
2023/08/14 04:23:30;;;;;;;12.73;8.73;;;;;;;22.51;73.39;101095.16;5022708;28;20440;-81
2023/08/14 04:25:59;;;;;;;7.90;7.10;;;;;;;23.19;69.24;101090.09;5003264;28;20450;-81
2023/08/14 04:28:30;;;;;;;7.20;6.30;;;;;;;23.94;66.67;101092.81;5006773;28;20419;-79
2023/08/14 04:31:00;;;;;;;8.70;7.90;;;;;;;24.41;63.38;101095.81;5003167;28;20422;-79
2023/08/14 04:33:29;;;;;;;9.07;6.53;;;;;;;24.76;61.61;101089.13;5002336;28;20427;-80
2023/08/14 04:35:59;;;;;;;13.00;7.90;;;;;;;25.20;60.08;101091.75;5004212;28;20956;-78
2023/08/14 04:38:29;;;;;;;10.40;7.37;;;;;;;25.60;58.38;101082.13;5009721;28;20469;-78
2023/08/14 04:40:58;;;;;;;7.47;6.63;;;;;;;26.14;56.27;101084.34;5011036;28;20441;-78
2023/08/14 04:43:31;;;;;;;8.30;6.67;;;;;;;26.53;54.95;101086.00;5020595;28;20959;-78
2023/08/14 04:46:09;;;;;;;10.37;7.27;;;;;;;26.55;54.08;101100.38;5002168;28;20487;-79
2023/08/14 04:48:39;;;;;;;10.60;6.43;;;;;;;26.78;53.53;101099.41;5010023;28;20479;-79
2023/08/14 04:51:08;;;;;;;9.37;7.67;;;;;;;27.17;51.90;101097.03;5022738;28;20424;-80
2023/08/14 04:53:38;;;;;;;7.73;6.93;;;;;;;27.12;52.77;101105.44;5022832;28;20425;-80
2023/08/14 04:56:10;;;;;;;8.03;7.07;;;;;;;27.33;51.99;101094.75;5004711;28;20473;-79
2023/08/14 04:58:41;;;;;;;11.10;7.77;;;;;;;27.60;50.92;101093.94;5008846;28;20441;-79
2023/08/14 05:01:10;;;;;;;7.53;6.73;;;;;;;27.83;49.95;101098.44;5002366;28;20467;-79
2023/08/14 05:03:40;;;;;;;7.40;6.77;;;;;;;28.04;48.79;101099.59;5023211;28;20448;-80
2023/08/14 05:06:09;;;;;;;9.13;5.80;;;;;;;28.04;48.60;101099.59;5000115;28;21442;-80
2023/08/14 05:08:39;;;;;;;8.70;6.30;;;;;;;28.45;48.11;101105.03;5033680;28;20435;-79
2023/08/14 05:11:09;;;;;;;9.30;6.50;;;;;;;28.21;48.54;101106.50;5018376;28;20468;-79
2023/08/14 05:13:44;;;;;;;11.80;7.07;;;;;;;28.15;48.44;101104.97;5019537;28;20449;-80
2023/08/14 05:16:19;;;;;;;11.67;6.33;;;;;;;28.53;48.46;101101.47;5019073;28;21010;-77
2023/08/14 05:18:49;;;;;;;7.00;5.67;;;;;;;29.21;46.27;101110.56;5002835;28;20529;-79
2023/08/14 05:21:19;;;;;;;11.23;6.13;;;;;;;28.94;46.86;101108.81;5003969;28;20436;-79
2023/08/14 05:23:51;;;;;;;7.73;6.40;;;;;;;28.56;46.97;101107.56;5015317;28;20435;-80
2023/08/14 05:26:21;;;;;;;8.67;7.70;;;;;;;26.36;53.13;101104.03;5024445;28;20476;-79
2023/08/14 05:28:52;;;;;;;8.30;6.50;;;;;;;24.87;58.02;101104.56;5036027;28;20426;-79
2023/08/14 05:31:21;;;;;;;8.23;7.00;;;;;;;23.66;63.51;101099.91;5015035;28;20404;-78
2023/08/14 05:33:51;;;;;;;8.53;7.47;;;;;;;22.85;67.40;101105.69;5017673;28;20429;-79
2023/08/14 05:36:21;;;;;;;8.50;7.60;;;;;;;22.52;69.53;101107.03;5021681;28;20475;-82
2023/08/14 05:38:53;;;;;;;8.63;7.07;;;;;;;22.29;71.58;101107.59;5036413;28;20733;-81
2023/08/14 05:41:22;;;;;;;8.10;7.00;;;;;;;22.12;71.77;101102.34;5027096;28;20410;-80
2023/08/14 05:43:53;;;;;;;7.80;7.10;;;;;;;21.97;73.22;101105.91;5016680;28;20461;-81
2023/08/14 05:46:24;;;;;;;8.13;7.33;;;;;;;21.90;73.47;101105.28;5015277;28;20472;-80
2023/08/14 05:48:53;;;;;;;9.17;7.90;;;;;;;21.90;73.11;101110.81;5017738;28;20441;-80
2023/08/14 05:51:23;;;;;;;8.30;7.20;;;;;;;21.97;73.80;101116.09;5024221;28;20453;-79
2023/08/14 05:53:52;;;;;;;11.77;7.67;;;;;;;22.01;73.61;101118.03;5037577;28;20429;-80
2023/08/14 05:56:22;;;;;;;10.00;7.37;;;;;;;21.88;72.73;101113.00;5032896;28;20448;-80
2023/08/14 05:58:57;;;;;;;8.93;7.27;;;;;;;21.88;72.44;101118.50;5016967;28;20476;-80
2023/08/14 06:01:27;;;;;;;10.93;7.43;;;;;;;21.97;72.68;101116.09;5029402;28;20485;-81
2023/08/14 06:03:56;;;;;;;11.13;7.20;;;;;;;21.99;72.03;101117.47;5018173;28;20403;-80
2023/08/14 06:06:29;;;;;;;10.40;7.67;;;;;;;22.07;72.22;101116.91;5016684;28;20472;-80
2023/08/14 06:08:59;;;;;;;16.33;7.73;;;;;;;22.21;72.03;101113.66;5016698;28;20445;-82
2023/08/14 06:11:29;;;;;;;14.30;8.00;;;;;;;22.36;71.17;101119.19;5019888;28;20673;-81
2023/08/14 06:14:01;;;;;;;13.00;7.40;;;;;;;22.42;71.10;101118.06;5019268;28;20472;-80
2023/08/14 06:16:31;;;;;;;13.10;7.40;;;;;;;22.54;70.67;101121.38;5019240;28;20466;-79
2023/08/14 06:19:00;;;;;;;8.03;7.33;;;;;;;22.62;70.70;101125.50;5019747;28;20445;-81
2023/08/14 06:21:30;;;;;;;8.00;7.17;;;;;;;22.72;69.71;101118.09;5019554;28;20508;-81
2023/08/14 06:23:59;;;;;;;10.33;7.83;;;;;;;22.87;69.15;101118.06;5027908;28;20448;-80
2023/08/14 06:26:32;;;;;;;7.90;7.10;;;;;;;23.07;68.14;101124.66;5020568;28;20477;-81
2023/08/14 06:29:03;;;;;;;8.53;7.50;;;;;;;23.17;67.41;101122.72;5019303;28;20436;-81
2023/08/14 06:31:32;;;;;;;12.17;7.23;;;;;;;23.29;67.54;101125.13;5019396;28;20428;-81
2023/08/14 06:34:02;;;;;;;8.40;6.90;;;;;;;23.38;65.71;101123.47;5016599;28;20890;-82
2023/08/14 06:36:31;;;;;;;7.60;6.70;;;;;;;23.57;65.90;101135.59;5036955;28;20441;-81
2023/08/14 06:39:01;;;;;;;6.67;5.73;;;;;;;23.57;65.15;101138.34;5041791;28;20487;-81
2023/08/14 06:41:31;;;;;;;11.20;5.43;;;;;;;23.71;65.19;101133.88;5024790;28;20425;-82
2023/08/14 06:44:08;;;;;;;9.17;5.93;;;;;;;23.87;64.49;101128.25;5017828;28;20701;-80
2023/08/14 06:46:41;;;;;;;7.50;6.20;;;;;;;23.97;63.03;101131.75;5019531;28;20480;-81
2023/08/14 06:49:11;;;;;;;8.07;6.37;;;;;;;24.14;63.04;101128.63;5020639;28;20428;-81
2023/08/14 06:51:41;;;;;;;7.20;5.50;;;;;;;24.08;63.24;101132.53;5015092;28;20441;-81
2023/08/14 06:54:11;;;;;;;7.43;5.97;;;;;;;24.30;63.26;101135.75;5015822;28;20441;-83
2023/08/14 06:56:40;;;;;;;9.17;6.60;;;;;;;24.54;63.78;101128.38;5025409;28;20453;-82
2023/08/14 06:59:13;;;;;;;7.57;6.03;;;;;;;24.67;61.94;101130.47;5028653;28;20451;-82
2023/08/14 07:01:43;;;;;;;6.53;5.10;;;;;;;24.81;60.09;101130.59;5007424;28;20517;-82
2023/08/14 07:04:12;;;;;;;5.83;5.17;;;;;;;24.98;59.56;101128.25;5003766;28;20470;-82
2023/08/14 07:06:42;;;;;;;6.33;5.70;;;;;;;24.85;60.06;101128.06;5004213;28;20480;-82
2023/08/14 07:09:16;;;;;;;8.70;5.43;;;;;;;24.96;59.73;101133.25;5015599;28;20478;-81
2023/08/14 07:11:45;;;;;;;7.87;5.03;;;;;;;25.20;59.33;101130.50;5005039;28;20515;-81
2023/08/14 07:14:16;;;;;;;5.50;4.80;;;;;;;25.29;57.39;101128.75;5010595;28;20472;-82
2023/08/14 07:16:46;;;;;;;8.17;6.00;;;;;;;25.25;58.64;101122.16;5037929;28;20429;-85
2023/08/14 07:19:17;;;;;;;8.60;4.90;;;;;;;25.21;57.43;101121.09;5021464;28;20482;-85
2023/08/14 07:21:47;;;;;;;7.70;4.77;;;;;;;25.27;57.46;101119.91;5022434;28;20445;-84
2023/08/14 07:24:17;;;;;;;5.90;4.50;;;;;;;25.48;57.05;101123.25;5022066;28;20419;-84
2023/08/14 07:26:47;;;;;;;5.80;4.67;;;;;;;25.86;55.92;101129.72;5039776;28;20535;-83
2023/08/14 07:29:18;;;;;;;7.43;5.00;;;;;;;26.10;54.81;101127.69;5038926;28;20412;-82
2023/08/14 07:31:48;;;;;;;4.40;4.00;;;;;;;26.25;54.08;101124.72;5022050;28;20443;-84
2023/08/14 07:34:19;;;;;;;4.50;4.03;;;;;;;26.42;53.98;101124.19;5048727;28;20431;-84
2023/08/14 07:36:49;;;;;;;5.63;3.90;;;;;;;26.62;52.90;101118.31;5024084;28;20473;-80
2023/08/14 07:39:19;;;;;;;7.47;4.27;;;;;;;26.79;51.94;101120.50;5025662;28;20437;-82
2023/08/14 07:41:49;;;;;;;8.03;4.77;;;;;;;26.64;51.54;101115.19;5025549;28;20515;-83
2023/08/14 07:44:20;;;;;;;4.57;4.07;;;;;;;26.47;52.15;101117.72;5023578;28;20537;-84
2023/08/14 07:46:50;;;;;;;6.10;4.43;;;;;;;26.25;52.81;101119.19;5024500;28;20482;-83
2023/08/14 07:49:24;;;;;;;5.80;3.93;;;;;;;26.50;53.20;101131.00;5022535;28;20440;-83
2023/08/14 07:51:57;;;;;;;7.23;5.20;;;;;;;26.58;52.63;101127.50;5029604;28;20423;-85
2023/08/14 07:54:48;;;;;;;4.90;4.30;;;;;;;26.50;52.18;101136.53;5021499;28;20450;-80
2023/08/14 07:57:30;;;;;;;9.30;4.77;;;;;;;26.38;53.29;101140.59;5019358;28;20552;-83
2023/08/14 08:00:15;;;;;;;6.50;5.00;;;;;;;26.35;51.48;101144.00;5008441;28;20519;-82
2023/08/14 08:02:45;;;;;;;9.83;4.00;;;;;;;26.43;51.53;101142.50;5017929;28;20429;-82
2023/08/14 08:05:16;;;;;;;5.03;3.50;;;;;;;26.45;50.48;101150.50;4997197;28;20441;-79
2023/08/14 08:07:52;;;;;;;3.93;3.40;;;;;;;26.45;51.84;101145.78;5025896;28;20492;-81
2023/08/14 08:10:22;;;;;;;4.23;3.43;;;;;;;26.20;51.95;101149.72;5006911;28;20456;-81
2023/08/14 08:12:52;;;;;;;9.40;4.73;;;;;;;26.06;53.25;101148.84;5006337;28;20456;-81
2023/08/14 08:15:25;;;;;;;8.03;4.40;;;;;;;26.07;53.53;101150.50;5006756;28;20445;-82
2023/08/14 08:17:55;;;;;;;5.73;5.07;;;;;;;26.33;52.66;101154.56;5024248;28;20483;-82
2023/08/14 08:20:24;;;;;;;11.93;5.60;;;;;;;26.40;53.22;101156.94;5032891;28;20437;-81
2023/08/14 08:22:57;;;;;;;3.30;2.93;;;;;;;26.46;50.43;101152.97;5007587;28;20463;-81
2023/08/14 08:25:27;;;;;;;4.80;3.80;;;;;;;26.55;49.66;101162.25;5001137;28;20450;-80
2023/08/14 08:27:58;;;;;;;5.30;3.60;;;;;;;26.69;49.31;101154.81;5006159;28;20469;-81
2023/08/14 08:30:29;;;;;;;7.60;4.43;;;;;;;26.81;49.80;101152.41;5006451;28;20488;-81
2023/08/14 08:32:59;;;;;;;5.97;4.30;;;;;;;26.82;49.32;101150.41;5009599;28;20464;-81
2023/08/14 08:35:32;;;;;;;4.10;3.70;;;;;;;26.81;47.70;101157.94;5020409;28;20512;-82
2023/08/14 08:38:01;;;;;;;9.23;4.10;;;;;;;26.81;48.26;101152.41;5025582;28;20449;-80
2023/08/14 08:40:32;;;;;;;8.77;4.30;;;;;;;27.00;48.14;101157.91;5001345;28;20457;-81
2023/08/14 08:43:03;;;;;;;7.70;3.90;;;;;;;27.08;48.77;101148.88;5011629;28;20443;-81
2023/08/14 08:45:40;;;;;;;4.73;3.30;;;;;;;27.09;49.32;101153.31;5015486;28;20554;-82
2023/08/14 08:48:16;;;;;;;6.90;4.13;;;;;;;27.32;48.57;101132.00;4997668;28;20465;-81
2023/08/14 08:50:49;;;;;;;6.20;3.93;;;;;;;27.46;47.09;101137.56;5003671;28;20475;-82
2023/08/14 08:53:32;;;;;;;6.40;4.50;;;;;;;27.42;45.92;101142.09;5014519;28;20532;-81
2023/08/14 08:56:07;;;;;;;9.60;4.20;;;;;;;27.63;44.90;101135.03;5006683;28;20488;-81
2023/08/14 08:58:37;;;;;;;5.90;3.90;;;;;;;27.64;45.25;101131.13;5022562;28;20437;-81
2023/08/14 09:01:10;;;;;;;4.90;4.40;;;;;;;27.71;45.70;101128.72;5012613;28;20512;-81
2023/08/14 09:03:40;;;;;;;6.43;4.00;;;;;;;27.97;43.59;101137.34;4994703;28;20529;-82
2023/08/14 09:06:15;;;;;;;5.23;3.80;;;;;;;28.06;44.29;101122.38;4995536;28;20492;-82
2023/08/14 09:08:51;;;;;;;6.30;4.40;;;;;;;28.14;43.87;101131.13;5007004;28;20470;-80
2023/08/14 09:11:21;;;;;;;5.90;3.70;;;;;;;28.34;43.58;101125.91;5005626;28;20441;-81
2023/08/14 09:13:51;;;;;;;5.10;3.10;;;;;;;28.53;42.00;101122.94;5001014;28;20575;-81
2023/08/14 09:16:24;;;;;;;6.03;3.20;;;;;;;28.32;42.00;101121.81;5024777;28;20458;-81
2023/08/14 09:18:57;;;;;;;5.00;3.07;;;;;;;28.22;43.34;101127.63;5000142;28;20481;-81
2023/08/14 09:21:27;;;;;;;7.80;4.67;;;;;;;28.29;43.56;101125.22;4987336;28;20457;-82
2023/08/14 09:24:00;;;;;;;4.83;4.20;;;;;;;28.55;43.20;101120.66;4998549;28;20445;-81
2023/08/14 09:26:30;;;;;;;6.63;4.00;;;;;;;28.42;42.82;101115.97;4995729;28;20478;-81
2023/08/14 09:29:29;;;;;;;4.33;3.43;;;;;;;28.26;42.52;101123.88;5009851;28;20481;-81
2023/08/14 09:32:22;;;;;;;6.17;4.20;;;;;;;28.44;43.29;101130.41;5004296;28;20985;-83
2023/08/14 09:34:59;;;;;;;5.20;3.03;;;;;;;28.76;41.19;101126.53;5003414;28;21037;-81
2023/08/14 09:37:36;;;;;;;6.33;3.30;;;;;;;28.80;40.45;101111.69;5009795;28;20477;-81
2023/08/14 09:40:15;;;;;;;5.10;3.67;;;;;;;28.89;40.29;101115.34;5002639;28;20818;-81
2023/08/14 09:42:46;;;;;;;4.27;3.43;;;;;;;29.06;39.99;101113.75;5020625;28;20433;-81
2023/08/14 09:45:17;;;;;;;9.43;4.03;;;;;;;29.19;39.92;101107.28;5017304;28;20429;-81
2023/08/14 09:47:48;;;;;;;3.20;2.83;;;;;;;29.20;40.68;101106.94;5002243;28;20471;-81
2023/08/14 09:50:25;;;;;;;5.80;3.70;;;;;;;28.93;40.71;101108.00;5019895;28;20425;-81
2023/08/14 09:52:58;;;;;;;7.87;3.27;;;;;;;29.01;40.79;101125.06;5010099;28;20455;-81
2023/08/14 09:55:30;;;;;;;5.93;2.83;;;;;;;29.19;39.90;101112.88;5026375;28;20499;-82
2023/08/14 09:58:03;;;;;;;7.30;3.83;;;;;;;29.29;39.83;101106.97;4994391;28;20475;-82
2023/08/14 10:00:34;;;;;;;4.60;3.33;;;;;;;29.35;40.03;101098.19;5017498;28;20436;-82
2023/08/14 10:03:09;;;;;;;4.40;2.90;;;;;;;29.34;39.14;101095.72;5019023;28;20816;-82
2023/08/14 10:05:40;;;;;;;8.77;3.50;;;;;;;29.43;39.53;101102.16;5008061;28;20452;-81
2023/08/14 10:08:11;;;;;;;5.70;3.30;;;;;;;29.50;39.64;101102.50;4992580;28;20527;-82
2023/08/14 10:10:42;;;;;;;4.20;3.33;;;;;;;29.59;39.66;101103.31;5003092;28;20453;-81
2023/08/14 10:13:21;;;;;;;6.80;3.83;;;;;;;29.82;39.48;101117.16;5012877;28;20451;-82
2023/08/14 10:15:56;;;;;;;3.20;2.60;;;;;;;29.66;38.88;101128.78;5002545;28;20444;-81
2023/08/14 10:18:31;;;;;;;4.47;3.17;;;;;;;29.39;39.60;101131.81;5018501;28;20543;-81
2023/08/14 10:21:06;;;;;;;4.60;3.37;;;;;;;29.28;39.83;101130.44;5005737;28;20463;-82
2023/08/14 10:23:39;;;;;;;6.77;3.63;;;;;;;29.55;39.05;101132.19;5008717;28;20457;-83
2023/08/14 10:26:11;;;;;;;4.10;3.20;;;;;;;29.57;38.65;101130.75;5000914;28;20480;-82
2023/08/14 10:28:43;;;;;;;3.63;3.30;;;;;;;29.68;38.28;101123.69;5000448;28;20547;-83
2023/08/14 10:31:26;;;;;;;3.63;3.30;;;;;;;29.55;38.74;101116.28;4994261;28;20465;-83
2023/08/14 10:33:59;;;;;;;4.80;3.33;;;;;;;29.72;39.16;101119.13;5014329;28;20468;-82
2023/08/14 10:36:31;;;;;;;9.20;3.33;;;;;;;29.97;38.26;101127.88;5030389;28;20467;-82
2023/08/14 10:39:08;;;;;;;4.80;2.93;;;;;;;30.19;37.70;101124.94;5023988;28;20477;-82
2023/08/14 10:41:38;;;;;;;3.80;2.43;;;;;;;30.00;36.40;101127.22;5018993;28;20444;-82
2023/08/14 10:44:11;;;;;;;5.73;3.00;;;;;;;30.19;36.70;101116.56;5029340;28;20414;-81
2023/08/14 10:46:44;;;;;;;4.43;2.97;;;;;;;30.43;36.02;101114.09;5027811;28;20464;-82
2023/08/14 10:49:15;;;;;;;3.93;2.47;;;;;;;30.62;35.44;101111.78;5038500;28;20526;-82
2023/08/14 10:51:47;;;;;;;2.53;2.33;;;;;;;30.38;36.28;101105.88;5031872;28;20436;-81
2023/08/14 10:54:17;;;;;;;5.90;2.60;;;;;;;30.68;36.13;101103.25;5037141;28;20436;-82
2023/08/14 10:56:51;;;;;;;5.37;2.97;;;;;;;30.81;35.31;101096.63;5040941;28;20487;-81
2023/08/14 10:59:24;;;;;;;3.00;2.70;;;;;;;30.58;36.00;101098.81;5015097;28;20420;-82
2023/08/14 11:02:05;;;;;;;5.23;2.40;;;;;;;30.47;36.08;101101.13;5014513;28;20464;-82
2023/08/14 11:04:41;;;;;;;5.20;3.47;;;;;;;30.54;35.97;101095.88;5024114;28;20453;-83
2023/08/14 11:10:15;;;;;;;4.77;3.20;;;;;;;30.71;36.73;101102.56;5022779;28;20468;-83
2023/08/14 11:12:46;;;;;;;4.10;2.67;;;;;;;30.62;37.44;101097.00;5008347;28;20444;-83
2023/08/14 11:15:15;;;;;;;6.23;2.70;;;;;;;30.67;36.79;101099.63;5002820;28;20440;-82
2023/08/14 11:17:47;;;;;;;3.97;2.53;;;;;;;30.82;36.43;101087.91;5010573;28;20852;-82
2023/08/14 11:20:19;;;;;;;7.17;4.40;;;;;;;30.72;36.66;101087.44;5004966;28;20449;-82
2023/08/14 11:22:49;;;;;;;5.50;3.60;;;;;;;30.72;37.38;101074.31;5004450;28;20472;-81
2023/08/14 11:25:20;;;;;;;3.13;2.80;;;;;;;30.92;36.81;101086.72;5009122;28;20885;-81
2023/08/14 11:27:51;;;;;;;3.53;3.20;;;;;;;30.86;37.22;101083.28;5014509;28;20477;-81
2023/08/14 11:30:22;;;;;;;3.97;3.33;;;;;;;30.93;38.72;101082.78;5006296;28;20478;-82
2023/08/14 11:32:55;;;;;;;3.37;2.93;;;;;;;30.93;37.48;101093.97;5009396;28;20960;-81
2023/08/14 11:39:05;;;;;;;5.23;3.33;;;;;;;30.86;37.09;101076.88;5027624;28;20436;-83
2023/08/14 11:41:38;;;;;;;3.83;2.63;;;;;;;30.75;37.63;101070.84;5012899;28;20492;-82
2023/08/14 11:44:08;;;;;;;4.63;3.07;;;;;;;30.98;37.14;101068.63;5016006;28;20452;-82
2023/08/14 11:46:37;;;;;;;5.23;4.03;;;;;;;31.24;36.68;101069.34;5008521;28;20468;-81
2023/08/14 11:49:12;;;;;;;3.70;2.73;;;;;;;31.42;36.78;101070.88;5008676;28;20531;-84
2023/08/14 11:51:42;;;;;;;5.17;3.53;;;;;;;31.09;36.94;101067.13;5026738;28;20853;-84